Colorado Springs, CO

10:50 PM MST on December 07, 2016 (GMT -0700)
Crown Hill Mesa | | Change Station

Elev 6171 ft 38.82 °N, 104.85 °W | Updated 20 seconds ago

Utando wa mawingu
Utando wa mawingu
7.3 °F
Feels Like 7 °F
N
0.0
Upepo Ya mabadiliko Upepo from Magharibi(Mg)
Gusts 0.0 mph

Leo
High -- | Low -- °F
--% Chance of Precip.
Yesterday
High -- | Low -- °F
Precip. -- nchi
Shinikizo 30.34 nchi
Mwangaza 2.5 meli
Clouds Mawingu sehemu nyingi 1700 ft
Utando wa mawingu 2300 ft
Ubaridi wa upepo 7 °F
Kilele cha umande 3 °F
Unyevu 81%
Rainfall 0.00 nchi
Snow Depth Not available.
7:04 AM 4:37 PM
First Quarter, 60% visible
SPECI KCOS 080539Z 20004KT 2 1/2SM -SN BR BKN017 OVC023 M13/M16 A3034 RMK AO2 TWR VIS 3 P0000 T11331156
Shinikizo 30.34 nchi
Mwangaza 2.5 meli
Clouds Mawingu sehemu nyingi 1700 ft
Utando wa mawingu 2300 ft
Ubaridi wa upepo 7 °F
Kilele cha umande 3 °F
Unyevu 81%
Rainfall 0.00 nchi
Snow Depth Not available.
7:04 AM 4:37 PM
First Quarter, 60% visible
SPECI KCOS 080539Z 20004KT 2 1/2SM -SN BR BKN017 OVC023 M13/M16 A3034 RMK AO2 TWR VIS 3 P0000 T11331156

10-Day Weather Forecast

Almanac

Astronomy

Dec. 07, 2016 Rise Set
Actual Time
Civil Twilight
Nautical Twilight
Astronomical Twilight
Moon
Length Of Visible Light
Length of Day
Tomorrow will be .
, % of the Moon is Illuminated

Today's Extremes

State Highs State Lows

Community

WunderPhotos

Upload Photos

1,956,259 photos uploaded!

WunderBlog® & News

Nearby

Air Quality

  Air Quality AQ Index Pollutant
Not available.

Snow Depth

Station Depth Elevation

Earthquake Activity

City Distance Mag. Time & Date
Minimum magnitude displayed is 2.5.

Coastal Water Temperatures

Mahali Hali ya Hewa

Stations

Nearby Weather Stations

Station Location Temp Ubaridi wa upepo Kilele cha umande Unyevu Upepo Precip. Elev Imesharekibishwa Type
                   

Watches & Warnings

There are currently no watches in effect.